sensor_id;sensor_type;location;lat;lon;timestamp;pressure;altitude;pressure_sealevel;temperature;humidity
12624;BME280;6377;42.836;23.998;2023-07-02T00:00:10;94939.84;;;19.94;100.00
12624;BME280;6377;42.836;23.998;2023-07-02T00:02:37;94935.63;;;20.03;100.00
12624;BME280;6377;42.836;23.998;2023-07-02T00:05:05;94933.16;;;19.96;100.00
12624;BME280;6377;42.836;23.998;2023-07-02T00:07:35;94914.84;;;19.88;100.00
12624;BME280;6377;42.836;23.998;2023-07-02T00:10:03;94930.78;;;20.00;100.00
12624;BME280;6377;42.836;23.998;2023-07-02T00:12:31;94919.53;;;20.03;100.00
12624;BME280;6377;42.836;23.998;2023-07-02T00:14:58;94923.75;;;19.94;100.00
12624;BME280;6377;42.836;23.998;2023-07-02T00:17:26;94895.41;;;19.76;100.00
12624;BME280;6377;42.836;23.998;2023-07-02T00:19:53;94923.16;;;19.87;100.00
12624;BME280;6377;42.836;23.998;2023-07-02T00:22:20;94905.38;;;19.81;100.00
12624;BME280;6377;42.836;23.998;2023-07-02T00:24:49;94907.97;;;20.02;100.00
12624;BME280;6377;42.836;23.998;2023-07-02T00:27:17;94915.28;;;20.07;100.00
12624;BME280;6377;42.836;23.998;2023-07-02T00:29:44;94913.19;;;20.14;100.00
12624;BME280;6377;42.836;23.998;2023-07-02T00:32:11;94880.91;;;20.04;100.00
12624;BME280;6377;42.836;23.998;2023-07-02T00:34:39;94913.53;;;20.23;100.00
12624;BME280;6377;42.836;23.998;2023-07-02T00:37:06;94909.25;;;20.22;100.00
12624;BME280;6377;42.836;23.998;2023-07-02T00:39:33;94905.72;;;20.16;100.00
12624;BME280;6377;42.836;23.998;2023-07-02T00:42:03;94907.78;;;20.09;100.00
12624;BME280;6377;42.836;23.998;2023-07-02T00:44:30;94905.41;;;20.12;100.00
12624;BME280;6377;42.836;23.998;2023-07-02T00:46:58;94911.28;;;20.09;100.00
12624;BME280;6377;42.836;23.998;2023-07-02T00:49:25;94905.44;;;20.18;100.00
12624;BME280;6377;42.836;23.998;2023-07-02T00:51:52;94905.44;;;20.18;100.00
12624;BME280;6377;42.836;23.998;2023-07-02T00:54:20;94897.84;;;20.09;100.00
12624;BME280;6377;42.836;23.998;2023-07-02T00:56:48;94898.16;;;20.13;100.00
12624;BME280;6377;42.836;23.998;2023-07-02T00:59:17;94890.28;;;20.01;100.00
12624;BME280;6377;42.836;23.998;2023-07-02T01:01:45;94898.41;;;20.11;100.00
12624;BME280;6377;42.836;23.998;2023-07-02T01:04:17;94896.50;;;20.07;100.00
12624;BME280;6377;42.836;23.998;2023-07-02T01:06:44;94901.06;;;20.06;100.00
12624;BME280;6377;42.836;23.998;2023-07-02T01:09:12;94901.88;;;19.80;100.00
12624;BME280;6377;42.836;23.998;2023-07-02T01:11:41;94899.72;;;19.77;100.00
12624;BME280;6377;42.836;23.998;2023-07-02T01:14:12;94899.56;;;19.62;100.00
12624;BME280;6377;42.836;23.998;2023-07-02T01:16:43;94897.78;;;19.73;100.00
12624;BME280;6377;42.836;23.998;2023-07-02T01:19:13;94895.97;;;19.78;100.00
12624;BME280;6377;42.836;23.998;2023-07-02T01:21:46;94892.72;;;19.76;100.00
12624;BME280;6377;42.836;23.998;2023-07-02T01:24:15;94900.06;;;19.59;100.00
12624;BME280;6377;42.836;23.998;2023-07-02T01:26:43;94863.78;;;19.51;100.00
12624;BME280;6377;42.836;23.998;2023-07-02T01:29:15;94903.00;;;19.58;100.00
12624;BME280;6377;42.836;23.998;2023-07-02T01:31:42;94889.13;;;19.39;100.00
12624;BME280;6377;42.836;23.998;2023-07-02T01:34:10;94894.81;;;19.26;100.00
12624;BME280;6377;42.836;23.998;2023-07-02T01:36:38;94907.13;;;19.22;100.00
12624;BME280;6377;42.836;23.998;2023-07-02T01:39:07;94916.25;;;18.99;100.00
12624;BME280;6377;42.836;23.998;2023-07-02T01:41:41;94916.53;;;19.02;100.00
12624;BME280;6377;42.836;23.998;2023-07-02T01:44:08;94918.81;;;18.94;100.00
12624;BME280;6377;42.836;23.998;2023-07-02T01:46:35;94915.44;;;18.82;100.00
12624;BME280;6377;42.836;23.998;2023-07-02T01:49:02;94935.53;;;18.63;100.00
12624;BME280;6377;42.836;23.998;2023-07-02T01:51:30;94913.47;;;18.72;100.00
12624;BME280;6377;42.836;23.998;2023-07-02T01:53:57;94824.72;;;18.30;100.00
12624;BME280;6377;42.836;23.998;2023-07-02T01:56:26;94866.47;;;18.65;100.00
12624;BME280;6377;42.836;23.998;2023-07-02T01:58:53;94911.69;;;19.21;100.00
12624;BME280;6377;42.836;23.998;2023-07-02T02:01:21;94915.28;;;19.32;100.00
12624;BME280;6377;42.836;23.998;2023-07-02T02:03:48;94926.16;;;19.42;100.00
12624;BME280;6377;42.836;23.998;2023-07-02T02:06:15;94915.09;;;19.38;100.00
12624;BME280;6377;42.836;23.998;2023-07-02T02:08:42;94914.28;;;19.38;100.00
12624;BME280;6377;42.836;23.998;2023-07-02T02:11:09;94920.84;;;19.47;100.00
12624;BME280;6377;42.836;23.998;2023-07-02T02:13:38;94917.63;;;19.45;100.00
12624;BME280;6377;42.836;23.998;2023-07-02T02:16:05;94909.81;;;19.43;100.00
12624;BME280;6377;42.836;23.998;2023-07-02T02:18:33;94905.88;;;19.51;100.00
12624;BME280;6377;42.836;23.998;2023-07-02T02:21:00;94900.22;;;19.47;100.00
12624;BME280;6377;42.836;23.998;2023-07-02T02:23:27;94910.47;;;19.55;100.00
12624;BME280;6377;42.836;23.998;2023-07-02T02:25:56;94909.53;;;19.40;100.00
12624;BME280;6377;42.836;23.998;2023-07-02T02:28:23;94923.16;;;19.17;100.00
12624;BME280;6377;42.836;23.998;2023-07-02T02:30:51;94924.94;;;19.11;100.00
12624;BME280;6377;42.836;23.998;2023-07-02T02:33:19;94921.22;;;19.12;100.00
12624;BME280;6377;42.836;23.998;2023-07-02T02:35:46;94888.97;;;18.85;100.00
12624;BME280;6377;42.836;23.998;2023-07-02T02:38:13;94929.44;;;18.84;100.00
12624;BME280;6377;42.836;23.998;2023-07-02T02:40:41;94921.25;;;18.74;100.00
12624;BME280;6377;42.836;23.998;2023-07-02T02:43:08;94925.19;;;18.88;100.00
12624;BME280;6377;42.836;23.998;2023-07-02T02:45:36;94932.94;;;19.06;100.00
12624;BME280;6377;42.836;23.998;2023-07-02T02:48:05;94938.16;;;19.18;100.00
12624;BME280;6377;42.836;23.998;2023-07-02T02:50:32;94938.16;;;19.18;100.00
12624;BME280;6377;42.836;23.998;2023-07-02T02:52:59;94935.59;;;19.06;100.00
12624;BME280;6377;42.836;23.998;2023-07-02T02:55:26;94920.06;;;19.08;100.00
12624;BME280;6377;42.836;23.998;2023-07-02T02:57:53;94930.13;;;19.18;100.00
12624;BME280;6377;42.836;23.998;2023-07-02T03:00:21;94923.75;;;19.24;100.00
12624;BME280;6377;42.836;23.998;2023-07-02T03:02:48;94922.03;;;19.13;100.00
12624;BME280;6377;42.836;23.998;2023-07-02T03:05:17;94928.56;;;19.22;100.00
12624;BME280;6377;42.836;23.998;2023-07-02T03:07:44;94931.69;;;19.14;100.00
12624;BME280;6377;42.836;23.998;2023-07-02T03:10:11;94925.88;;;19.00;100.00
12624;BME280;6377;42.836;23.998;2023-07-02T03:12:38;94939.28;;;19.00;100.00
12624;BME280;6377;42.836;23.998;2023-07-02T03:15:06;94917.28;;;18.98;100.00
12624;BME280;6377;42.836;23.998;2023-07-02T03:17:35;94925.25;;;18.93;100.00
12624;BME280;6377;42.836;23.998;2023-07-02T03:20:02;94915.66;;;18.97;100.00
12624;BME280;6377;42.836;23.998;2023-07-02T03:22:31;94926.97;;;18.99;100.00
12624;BME280;6377;42.836;23.998;2023-07-02T03:24:59;94922.00;;;18.91;100.00
12624;BME280;6377;42.836;23.998;2023-07-02T03:27:27;94927.06;;;18.87;100.00
12624;BME280;6377;42.836;23.998;2023-07-02T03:29:54;94914.94;;;18.85;100.00
12624;BME280;6377;42.836;23.998;2023-07-02T03:32:21;94914.88;;;18.80;100.00
12624;BME280;6377;42.836;23.998;2023-07-02T03:34:48;94917.84;;;18.78;100.00
12624;BME280;6377;42.836;23.998;2023-07-02T03:37:15;94901.50;;;18.80;100.00
12624;BME280;6377;42.836;23.998;2023-07-02T03:39:45;94908.72;;;18.79;100.00
12624;BME280;6377;42.836;23.998;2023-07-02T03:42:12;94922.50;;;18.88;100.00
12624;BME280;6377;42.836;23.998;2023-07-02T03:44:39;94907.88;;;18.95;100.00
12624;BME280;6377;42.836;23.998;2023-07-02T03:47:06;94913.25;;;18.95;100.00
12624;BME280;6377;42.836;23.998;2023-07-02T03:49:34;94899.56;;;18.97;100.00
12624;BME280;6377;42.836;23.998;2023-07-02T03:52:01;94911.47;;;19.06;100.00
12624;BME280;6377;42.836;23.998;2023-07-02T03:54:28;94909.44;;;19.13;100.00
12624;BME280;6377;42.836;23.998;2023-07-02T03:56:57;94917.22;;;19.15;100.00
12624;BME280;6377;42.836;23.998;2023-07-02T03:59:24;94910.25;;;19.14;100.00
12624;BME280;6377;42.836;23.998;2023-07-02T04:01:51;94918.97;;;19.04;100.00
12624;BME280;6377;42.836;23.998;2023-07-02T04:04:18;94931.88;;;19.07;100.00
12624;BME280;6377;42.836;23.998;2023-07-02T04:06:46;94924.94;;;18.89;100.00
12624;BME280;6377;42.836;23.998;2023-07-02T04:09:14;94921.50;;;18.94;100.00
12624;BME280;6377;42.836;23.998;2023-07-02T04:11:41;94912.28;;;18.85;100.00
12624;BME280;6377;42.836;23.998;2023-07-02T04:14:09;94899.97;;;18.67;100.00
12624;BME280;6377;42.836;23.998;2023-07-02T04:16:36;94937.69;;;18.82;100.00
12624;BME280;6377;42.836;23.998;2023-07-02T04:19:04;94926.00;;;18.88;100.00
12624;BME280;6377;42.836;23.998;2023-07-02T04:21:31;94930.03;;;18.91;100.00
12624;BME280;6377;42.836;23.998;2023-07-02T04:23:58;94922.09;;;18.96;100.00
12624;BME280;6377;42.836;23.998;2023-07-02T04:26:25;94918.41;;;19.02;100.00
12624;BME280;6377;42.836;23.998;2023-07-02T04:28:53;94910.50;;;19.12;100.00
12624;BME280;6377;42.836;23.998;2023-07-02T04:31:22;94922.59;;;18.93;100.00
12624;BME280;6377;42.836;23.998;2023-07-02T04:33:50;94927.94;;;18.93;100.00
12624;BME280;6377;42.836;23.998;2023-07-02T04:36:17;94932.88;;;19.01;100.00
12624;BME280;6377;42.836;23.998;2023-07-02T04:38:44;94930.75;;;19.03;100.00
12624;BME280;6377;42.836;23.998;2023-07-02T04:41:11;94939.09;;;19.07;100.00
12624;BME280;6377;42.836;23.998;2023-07-02T04:43:38;94947.97;;;19.07;100.00
12624;BME280;6377;42.836;23.998;2023-07-02T04:46:06;94947.19;;;19.12;100.00
12624;BME280;6377;42.836;23.998;2023-07-02T04:48:35;94949.66;;;19.13;100.00
12624;BME280;6377;42.836;23.998;2023-07-02T04:51:02;94956.25;;;19.27;100.00
12624;BME280;6377;42.836;23.998;2023-07-02T04:53:29;94958.66;;;19.29;100.00
12624;BME280;6377;42.836;23.998;2023-07-02T04:55:57;94970.94;;;19.41;100.00
12624;BME280;6377;42.836;23.998;2023-07-02T04:58:24;94955.31;;;19.38;100.00
12624;BME280;6377;42.836;23.998;2023-07-02T05:00:51;94963.94;;;19.40;100.00
12624;BME280;6377;42.836;23.998;2023-07-02T05:03:18;94969.56;;;19.39;100.00
12624;BME280;6377;42.836;23.998;2023-07-02T05:05:47;94972.56;;;19.42;100.00
12624;BME280;6377;42.836;23.998;2023-07-02T05:08:14;94961.66;;;19.49;100.00
12624;BME280;6377;42.836;23.998;2023-07-02T05:10:41;94966.53;;;19.52;100.00
12624;BME280;6377;42.836;23.998;2023-07-02T05:13:09;94974.34;;;19.58;100.00
12624;BME280;6377;42.836;23.998;2023-07-02T05:15:36;94969.63;;;19.66;100.00
12624;BME280;6377;42.836;23.998;2023-07-02T05:18:04;94965.75;;;19.78;100.00
12624;BME280;6377;42.836;23.998;2023-07-02T05:20:32;94964.16;;;19.82;100.00
12624;BME280;6377;42.836;23.998;2023-07-02T05:23:00;94974.75;;;19.94;100.00
12624;BME280;6377;42.836;23.998;2023-07-02T05:25:28;94981.78;;;20.00;100.00
12624;BME280;6377;42.836;23.998;2023-07-02T05:27:55;94988.59;;;20.07;100.00
12624;BME280;6377;42.836;23.998;2023-07-02T05:30:22;94975.16;;;20.07;100.00
12624;BME280;6377;42.836;23.998;2023-07-02T05:32:49;94981.13;;;20.14;100.00
12624;BME280;6377;42.836;23.998;2023-07-02T05:35:16;94929.72;;;19.74;100.00
12624;BME280;6377;42.836;23.998;2023-07-02T05:37:43;94991.34;;;19.91;100.00
12624;BME280;6377;42.836;23.998;2023-07-02T05:40:13;94999.97;;;19.93;100.00
12624;BME280;6377;42.836;23.998;2023-07-02T05:42:41;95010.44;;;19.94;100.00
12624;BME280;6377;42.836;23.998;2023-07-02T05:45:10;95009.41;;;19.95;100.00
12624;BME280;6377;42.836;23.998;2023-07-02T05:47:37;95006.13;;;19.93;100.00
12624;BME280;6377;42.836;23.998;2023-07-02T05:50:06;95004.03;;;19.95;100.00
12624;BME280;6377;42.836;23.998;2023-07-02T05:52:33;94999.47;;;19.96;100.00
12624;BME280;6377;42.836;23.998;2023-07-02T05:55:01;94996.84;;;20.01;100.00
12624;BME280;6377;42.836;23.998;2023-07-02T05:57:29;94997.03;;;19.94;100.00
12624;BME280;6377;42.836;23.998;2023-07-02T05:59:56;95003.72;;;19.92;100.00
12624;BME280;6377;42.836;23.998;2023-07-02T06:02:24;95002.91;;;19.91;100.00
12624;BME280;6377;42.836;23.998;2023-07-02T06:04:51;94995.97;;;19.95;100.00
12624;BME280;6377;42.836;23.998;2023-07-02T06:07:18;95000.22;;;19.91;100.00
12624;BME280;6377;42.836;23.998;2023-07-02T06:09:45;94997.56;;;19.96;100.00
12624;BME280;6377;42.836;23.998;2023-07-02T06:12:12;94973.56;;;19.85;100.00
12624;BME280;6377;42.836;23.998;2023-07-02T06:14:41;94994.88;;;19.96;100.00
12624;BME280;6377;42.836;23.998;2023-07-02T06:17:08;94993.66;;;20.04;100.00
12624;BME280;6377;42.836;23.998;2023-07-02T06:19:36;94988.63;;;20.12;100.00
12624;BME280;6377;42.836;23.998;2023-07-02T06:22:03;94981.44;;;20.18;100.00
12624;BME280;6377;42.836;23.998;2023-07-02T06:24:31;94973.66;;;19.90;100.00
12624;BME280;6377;42.836;23.998;2023-07-02T06:26:58;94976.25;;;20.11;100.00
12624;BME280;6377;42.836;23.998;2023-07-02T06:29:25;94984.56;;;20.10;100.00
12624;BME280;6377;42.836;23.998;2023-07-02T06:31:55;94988.66;;;20.18;100.00
12624;BME280;6377;42.836;23.998;2023-07-02T06:34:22;94979.38;;;20.25;100.00
12624;BME280;6377;42.836;23.998;2023-07-02T06:36:49;94970.19;;;20.21;100.00
12624;BME280;6377;42.836;23.998;2023-07-02T06:39:16;94962.38;;;20.20;100.00
12624;BME280;6377;42.836;23.998;2023-07-02T06:41:44;94956.66;;;20.11;100.00
12624;BME280;6377;42.836;23.998;2023-07-02T06:44:11;94958.03;;;20.13;100.00
12624;BME280;6377;42.836;23.998;2023-07-02T06:46:38;94964.97;;;20.09;100.00
12624;BME280;6377;42.836;23.998;2023-07-02T06:49:07;94965.78;;;20.10;100.00
12624;BME280;6377;42.836;23.998;2023-07-02T06:51:34;94953.25;;;20.21;100.00
12624;BME280;6377;42.836;23.998;2023-07-02T06:54:01;94954.75;;;20.33;100.00
12624;BME280;6377;42.836;23.998;2023-07-02T06:56:29;94959.47;;;20.53;100.00
12624;BME280;6377;42.836;23.998;2023-07-02T06:58:58;94955.78;;;20.64;100.00
12624;BME280;6377;42.836;23.998;2023-07-02T07:01:25;94946.06;;;20.58;100.00
12624;BME280;6377;42.836;23.998;2023-07-02T07:03:52;94972.03;;;20.84;95.96
12624;BME280;6377;42.836;23.998;2023-07-02T07:06:21;94974.00;;;20.94;91.81
12624;BME280;6377;42.836;23.998;2023-07-02T07:08:48;94976.00;;;21.08;90.60
12624;BME280;6377;42.836;23.998;2023-07-02T07:11:15;94978.22;;;21.21;92.90
12624;BME280;6377;42.836;23.998;2023-07-02T07:13:42;94979.09;;;21.37;85.01
12624;BME280;6377;42.836;23.998;2023-07-02T07:16:10;94969.44;;;21.41;80.90
12624;BME280;6377;42.836;23.998;2023-07-02T07:18:37;94965.25;;;21.65;81.44
12624;BME280;6377;42.836;23.998;2023-07-02T07:21:05;94970.66;;;21.81;82.00
12624;BME280;6377;42.836;23.998;2023-07-02T07:23:33;94969.66;;;21.97;80.11
12624;BME280;6377;42.836;23.998;2023-07-02T07:26:00;94962.41;;;22.07;79.07
12624;BME280;6377;42.836;23.998;2023-07-02T07:28:28;94965.13;;;22.38;75.50
12624;BME280;6377;42.836;23.998;2023-07-02T07:30:55;94968.66;;;22.58;74.17
12624;BME280;6377;42.836;23.998;2023-07-02T07:33:22;94966.22;;;22.87;73.19
12624;BME280;6377;42.836;23.998;2023-07-02T07:35:49;94948.69;;;23.00;71.65
12624;BME280;6377;42.836;23.998;2023-07-02T07:38:16;94955.91;;;23.24;65.41
12624;BME280;6377;42.836;23.998;2023-07-02T07:40:45;94961.78;;;23.52;60.73
12624;BME280;6377;42.836;23.998;2023-07-02T07:43:12;94956.75;;;23.84;64.25
12624;BME280;6377;42.836;23.998;2023-07-02T07:45:39;94962.13;;;23.94;60.12
12624;BME280;6377;42.836;23.998;2023-07-02T07:48:06;94909.09;;;23.64;59.57
12624;BME280;6377;42.836;23.998;2023-07-02T07:50:34;94967.47;;;24.04;59.24
12624;BME280;6377;42.836;23.998;2023-07-02T07:53:01;94972.28;;;24.07;59.63
12624;BME280;6377;42.836;23.998;2023-07-02T07:55:28;94952.91;;;24.00;58.90
12624;BME280;6377;42.836;23.998;2023-07-02T07:57:57;94974.16;;;24.22;58.98
12624;BME280;6377;42.836;23.998;2023-07-02T08:00:24;94983.59;;;24.24;57.70
12624;BME280;6377;42.836;23.998;2023-07-02T08:02:52;94927.22;;;24.03;58.15
12624;BME280;6377;42.836;23.998;2023-07-02T08:05:21;94965.44;;;24.30;58.37
12624;BME280;6377;42.836;23.998;2023-07-02T08:07:48;94980.44;;;24.51;57.31
12624;BME280;6377;42.836;23.998;2023-07-02T08:10:16;94973.63;;;24.59;56.77
12624;BME280;6377;42.836;23.998;2023-07-02T08:12:43;94978.31;;;24.48;56.22
12624;BME280;6377;42.836;23.998;2023-07-02T08:15:13;94983.56;;;24.63;57.24
12624;BME280;6377;42.836;23.998;2023-07-02T08:17:40;94987.81;;;24.74;57.77
12624;BME280;6377;42.836;23.998;2023-07-02T08:20:08;94987.00;;;24.74;56.25
12624;BME280;6377;42.836;23.998;2023-07-02T08:22:35;94983.97;;;24.85;57.14
12624;BME280;6377;42.836;23.998;2023-07-02T08:25:04;94978.75;;;24.94;57.72
12624;BME280;6377;42.836;23.998;2023-07-02T08:27:31;94972.63;;;24.83;56.47
12624;BME280;6377;42.836;23.998;2023-07-02T08:29:59;94978.25;;;24.92;56.09
12624;BME280;6377;42.836;23.998;2023-07-02T08:32:27;94984.56;;;24.72;56.07
12624;BME280;6377;42.836;23.998;2023-07-02T08:34:55;94985.44;;;24.68;57.29
12624;BME280;6377;42.836;23.998;2023-07-02T08:37:22;94985.19;;;24.64;58.57
12624;BME280;6377;42.836;23.998;2023-07-02T08:39:49;94988.38;;;24.71;58.57
12624;BME280;6377;42.836;23.998;2023-07-02T08:42:17;94974.13;;;24.61;57.64
12624;BME280;6377;42.836;23.998;2023-07-02T08:44:46;94960.72;;;24.50;57.55
12624;BME280;6377;42.836;23.998;2023-07-02T08:47:14;94987.25;;;24.77;58.12
12624;BME280;6377;42.836;23.998;2023-07-02T08:49:43;94989.16;;;24.77;59.65
12624;BME280;6377;42.836;23.998;2023-07-02T08:52:11;94991.63;;;24.73;58.14
12624;BME280;6377;42.836;23.998;2023-07-02T08:54:38;94980.50;;;24.75;55.97
12624;BME280;6377;42.836;23.998;2023-07-02T08:57:07;94991.13;;;24.66;55.71
12624;BME280;6377;42.836;23.998;2023-07-02T08:59:36;94988.97;;;24.68;55.72
12624;BME280;6377;42.836;23.998;2023-07-02T09:02:03;94988.59;;;24.80;56.25
12624;BME280;6377;42.836;23.998;2023-07-02T09:04:31;94985.81;;;24.90;55.75
12624;BME280;6377;42.836;23.998;2023-07-02T09:07:06;94965.94;;;24.71;57.80
12624;BME280;6377;42.836;23.998;2023-07-02T09:09:44;94987.69;;;24.94;56.25
12624;BME280;6377;42.836;23.998;2023-07-02T09:12:22;94989.50;;;24.99;55.60
12624;BME280;6377;42.836;23.998;2023-07-02T09:14:54;94987.25;;;25.11;55.00
12624;BME280;6377;42.836;23.998;2023-07-02T09:17:27;94981.75;;;25.21;55.54
12624;BME280;6377;42.836;23.998;2023-07-02T09:19:57;94975.94;;;25.33;54.51
12624;BME280;6377;42.836;23.998;2023-07-02T09:22:27;94981.78;;;25.16;54.77
12624;BME280;6377;42.836;23.998;2023-07-02T09:24:56;94962.38;;;25.09;54.57
12624;BME280;6377;42.836;23.998;2023-07-02T09:27:33;94980.88;;;25.26;55.03
12624;BME280;6377;42.836;23.998;2023-07-02T09:30:06;94975.06;;;25.37;54.78
12624;BME280;6377;42.836;23.998;2023-07-02T09:32:34;94978.56;;;25.38;53.62
12624;BME280;6377;42.836;23.998;2023-07-02T09:35:01;94964.41;;;25.46;53.14
12624;BME280;6377;42.836;23.998;2023-07-02T09:37:32;94973.69;;;25.63;53.74
12624;BME280;6377;42.836;23.998;2023-07-02T09:40:00;94982.56;;;25.69;52.74
12624;BME280;6377;42.836;23.998;2023-07-02T09:42:31;94981.16;;;25.77;52.42
12624;BME280;6377;42.836;23.998;2023-07-02T09:44:59;94948.09;;;25.75;51.68
12624;BME280;6377;42.836;23.998;2023-07-02T09:47:28;94989.28;;;25.95;50.99
12624;BME280;6377;42.836;23.998;2023-07-02T09:50:03;94930.09;;;25.41;49.81
12624;BME280;6377;42.836;23.998;2023-07-02T09:52:33;94983.84;;;25.77;51.05
12624;BME280;6377;42.836;23.998;2023-07-02T09:55:01;94991.44;;;25.75;50.94
12624;BME280;6377;42.836;23.998;2023-07-02T09:57:30;94984.34;;;25.79;49.50
12624;BME280;6377;42.836;23.998;2023-07-02T09:59:59;94993.97;;;25.90;50.76
12624;BME280;6377;42.836;23.998;2023-07-02T10:02:26;94988.44;;;26.00;51.23
12624;BME280;6377;42.836;23.998;2023-07-02T10:04:53;94976.44;;;26.06;50.55
12624;BME280;6377;42.836;23.998;2023-07-02T10:07:29;94990.16;;;26.33;50.08
12624;BME280;6377;42.836;23.998;2023-07-02T10:09:58;94969.63;;;26.08;49.63
12624;BME280;6377;42.836;23.998;2023-07-02T10:12:27;94988.84;;;26.31;49.43
12624;BME280;6377;42.836;23.998;2023-07-02T10:14:55;94974.50;;;26.30;49.49
12624;BME280;6377;42.836;23.998;2023-07-02T10:17:27;94987.03;;;26.45;50.00
12624;BME280;6377;42.836;23.998;2023-07-02T10:19:57;94980.78;;;26.44;50.12
12624;BME280;6377;42.836;23.998;2023-07-02T10:22:25;94982.59;;;26.49;49.60
12624;BME280;6377;42.836;23.998;2023-07-02T10:24:53;94982.59;;;26.49;48.90
12624;BME280;6377;42.836;23.998;2023-07-02T10:27:38;94969.78;;;26.54;48.25
12624;BME280;6377;42.836;23.998;2023-07-02T10:30:08;94971.31;;;26.60;48.35
12624;BME280;6377;42.836;23.998;2023-07-02T10:32:37;94971.66;;;26.72;48.04
12624;BME280;6377;42.836;23.998;2023-07-02T10:35:13;94961.63;;;27.05;49.05
12624;BME280;6377;42.836;23.998;2023-07-02T10:37:41;94962.34;;;27.24;46.40
12624;BME280;6377;42.836;23.998;2023-07-02T10:40:09;94953.00;;;27.31;46.65
12624;BME280;6377;42.836;23.998;2023-07-02T10:42:48;94946.09;;;27.65;45.84
12624;BME280;6377;42.836;23.998;2023-07-02T10:45:16;94939.06;;;28.05;45.61
12624;BME280;6377;42.836;23.998;2023-07-02T10:47:43;94954.03;;;28.52;46.40
12624;BME280;6377;42.836;23.998;2023-07-02T10:50:15;94908.88;;;28.51;44.25
12624;BME280;6377;42.836;23.998;2023-07-02T10:52:43;94944.09;;;28.92;43.40
12624;BME280;6377;42.836;23.998;2023-07-02T10:55:10;94946.00;;;29.14;43.27
12624;BME280;6377;42.836;23.998;2023-07-02T10:57:39;94942.53;;;29.53;43.51
12624;BME280;6377;42.836;23.998;2023-07-02T11:00:11;94940.13;;;30.08;43.06
12624;BME280;6377;42.836;23.998;2023-07-02T11:02:42;94934.72;;;30.59;43.55
12624;BME280;6377;42.836;23.998;2023-07-02T11:05:09;94933.09;;;30.84;42.48
12624;BME280;6377;42.836;23.998;2023-07-02T11:07:38;94929.38;;;31.14;41.56
12624;BME280;6377;42.836;23.998;2023-07-02T11:10:06;94927.53;;;31.35;41.43
12624;BME280;6377;42.836;23.998;2023-07-02T11:12:33;94935.19;;;31.59;42.52
12624;BME280;6377;42.836;23.998;2023-07-02T11:15:12;94940.22;;;31.48;41.37
12624;BME280;6377;42.836;23.998;2023-07-02T11:17:40;94932.94;;;30.80;42.18
12624;BME280;6377;42.836;23.998;2023-07-02T11:20:07;94927.00;;;30.87;42.60
12624;BME280;6377;42.836;23.998;2023-07-02T11:22:36;94923.78;;;30.85;42.16
12624;BME280;6377;42.836;23.998;2023-07-02T11:25:13;94911.56;;;31.08;41.52
12624;BME280;6377;42.836;23.998;2023-07-02T11:27:41;94930.00;;;31.20;41.48
12624;BME280;6377;42.836;23.998;2023-07-02T11:30:11;94939.53;;;30.71;41.86
12624;BME280;6377;42.836;23.998;2023-07-02T11:32:49;94924.28;;;30.35;42.59
12624;BME280;6377;42.836;23.998;2023-07-02T11:35:17;94928.59;;;30.28;43.41
12624;BME280;6377;42.836;23.998;2023-07-02T11:37:44;94930.25;;;29.33;44.27
12624;BME280;6377;42.836;23.998;2023-07-02T11:40:12;94923.22;;;29.40;44.57
12624;BME280;6377;42.836;23.998;2023-07-02T11:42:40;94928.31;;;29.03;45.92
12624;BME280;6377;42.836;23.998;2023-07-02T11:45:08;94925.22;;;28.96;46.06
12624;BME280;6377;42.836;23.998;2023-07-02T11:47:37;94926.13;;;29.13;45.33
12624;BME280;6377;42.836;23.998;2023-07-02T11:50:05;94923.31;;;29.27;44.99
12624;BME280;6377;42.836;23.998;2023-07-02T11:52:33;94916.97;;;29.79;44.47
12624;BME280;6377;42.836;23.998;2023-07-02T11:55:00;94912.41;;;30.57;44.13
12624;BME280;6377;42.836;23.998;2023-07-02T11:57:27;94917.88;;;30.40;42.86
12624;BME280;6377;42.836;23.998;2023-07-02T11:59:54;94921.22;;;30.37;43.18
12624;BME280;6377;42.836;23.998;2023-07-02T12:02:21;94899.75;;;30.61;43.93
12624;BME280;6377;42.836;23.998;2023-07-02T12:04:50;94853.47;;;30.82;42.68
12624;BME280;6377;42.836;23.998;2023-07-02T12:07:17;94888.44;;;31.52;41.94
12624;BME280;6377;42.836;23.998;2023-07-02T12:09:44;94923.78;;;31.86;41.09
12624;BME280;6377;42.836;23.998;2023-07-02T12:12:12;94912.66;;;31.91;39.27
12624;BME280;6377;42.836;23.998;2023-07-02T12:14:40;94920.56;;;32.43;39.82
12624;BME280;6377;42.836;23.998;2023-07-02T12:17:09;94914.94;;;32.18;39.91
12624;BME280;6377;42.836;23.998;2023-07-02T12:19:38;94918.78;;;31.13;41.03
12624;BME280;6377;42.836;23.998;2023-07-02T12:22:07;94865.84;;;29.93;42.84
12624;BME280;6377;42.836;23.998;2023-07-02T12:24:34;94910.59;;;30.18;42.78
12624;BME280;6377;42.836;23.998;2023-07-02T12:27:02;94911.56;;;29.88;43.70
12624;BME280;6377;42.836;23.998;2023-07-02T12:29:29;94910.69;;;29.70;43.92
12624;BME280;6377;42.836;23.998;2023-07-02T12:31:57;94915.06;;;29.40;43.91
12624;BME280;6377;42.836;23.998;2023-07-02T12:34:24;94913.31;;;29.14;44.86
12624;BME280;6377;42.836;23.998;2023-07-02T12:36:52;94909.84;;;28.91;45.58
12624;BME280;6377;42.836;23.998;2023-07-02T12:39:21;94908.97;;;28.82;46.26
12624;BME280;6377;42.836;23.998;2023-07-02T12:41:48;94903.19;;;29.06;46.21
12624;BME280;6377;42.836;23.998;2023-07-02T12:44:15;94905.06;;;29.67;45.28
12624;BME280;6377;42.836;23.998;2023-07-02T12:46:42;94905.16;;;30.18;44.26
12624;BME280;6377;42.836;23.998;2023-07-02T12:49:09;94906.16;;;30.39;41.74
12624;BME280;6377;42.836;23.998;2023-07-02T12:51:36;94907.59;;;30.45;42.07
12624;BME280;6377;42.836;23.998;2023-07-02T12:54:03;94895.56;;;30.29;43.07
12624;BME280;6377;42.836;23.998;2023-07-02T12:56:32;94897.09;;;29.87;42.73
12624;BME280;6377;42.836;23.998;2023-07-02T12:59:01;94894.97;;;29.67;43.93